Hauptseite
METAR-TAF:

METAR-TAF

Flughäfen :

El Borma, Tunesien

Breite: 31-41N, Länge: 009-10E, Höhe: 258 m

Beobachtung

Neuester Wetterbericht von vor 12 Stunden und 52 Minuten, um 17:00 UTC
Wind 10 kt aus Nord
Temperatur 41°C
Luftfeuchtigkeit 12%
Luftdruck 1011 hPa
Sichtweite 10 km oder mehr
keine Wolken unter 1500 m und keine Kumulonimbus oder Gewitterwolken

METAR: DTTR 121700Z 35010KT CAVOK 41/06 Q1011 SIROCCO

Zeit: 06:52 (05:52 UTC)

Prognose

Neuester Wetterbericht von vor 2 Stunden und 52 Minuten, um 03:00 UTC
Gültige Prognose vom 13 um 04 UTC bis 13 um 13 UTC
Wind 10 kt aus Nord
Sichtweite 10 km oder mehr
keine Wolken unter 1500 m und keine Kumulonimbus oder Gewitterwolken
Übergehend zu
vom 13 um 04 UTC bis 13 um 06 UTC
Wind 10 kt aus Ost

TAF: DTTR 130300Z 1304/1313 35010KT CAVOK BECMG 1304/1306 10010KT

Wetterbeobachtungen und Prognosen von mehr als 4000 Flughäfen (METAR und TAF Bericht).

Die verfügbaren Stationen werden durch gelbe und rote Markierungen auf der Karte dargestellt.

Führen Sie die Maus auf sie, um den Namen der Station zu sehen.

Darauf klicken, um die Beobachtung von Wetterbeobachtungen und Prognosen zu sehen.

Um die Karte zu ändern : klicken Sie auf den grünen Tasten mit einem schwarzen Kreuz Zum Vergrößern, auf den grünen Button mit einem Gedankenstrich zu verkleinern, oder auf die grünen Pfeile für benachbarte Karten.


METAR-TAF: